createdAt,value
2019-03-08T00:01:04.043Z,25.15
2019-03-08T00:03:36.188Z,24.90
2019-03-08T00:06:08.240Z,25.15
2019-03-08T00:08:40.687Z,27.55
2019-03-08T00:11:12.641Z,31.73
2019-03-08T00:13:44.580Z,29.18
2019-03-08T00:16:16.564Z,23.47
2019-03-08T00:18:48.478Z,23.70
2019-03-08T00:21:20.730Z,24.23
2019-03-08T00:23:52.565Z,25.85
2019-03-08T00:26:24.416Z,28.25
2019-03-08T00:28:56.267Z,26.05
2019-03-08T00:31:28.190Z,25.30
2019-03-08T00:34:01.032Z,24.70
2019-03-08T00:36:35.720Z,25.72
2019-03-08T00:39:11.325Z,28.05
2019-03-08T00:41:43.095Z,25.10
2019-03-08T00:44:15.264Z,25.68
2019-03-08T00:46:47.054Z,25.45
2019-03-08T00:49:18.901Z,29.50
2019-03-08T00:51:50.942Z,28.25
2019-03-08T00:54:22.767Z,27.35
2019-03-08T00:56:54.564Z,26.30
2019-03-08T00:59:27.468Z,25.95
2019-03-08T01:01:59.257Z,26.05
2019-03-08T01:04:31.543Z,23.38
2019-03-08T01:07:03.732Z,22.10
2019-03-08T01:09:35.607Z,21.00
2019-03-08T01:12:07.449Z,21.42
2019-03-08T01:14:39.611Z,22.70
2019-03-08T01:17:11.386Z,23.67
2019-03-08T01:19:43.328Z,22.93
2019-03-08T01:22:15.465Z,20.65
2019-03-08T01:24:47.699Z,21.77
2019-03-08T01:27:20.844Z,21.30
2019-03-08T01:29:52.799Z,21.62
2019-03-08T01:32:24.566Z,21.97
2019-03-08T01:34:56.456Z,21.48
2019-03-08T01:37:29.071Z,19.70
2019-03-08T01:40:02.327Z,20.60
2019-03-08T01:42:35.623Z,19.85
2019-03-08T01:45:09.735Z,19.92
2019-03-08T01:47:41.633Z,20.45
2019-03-08T01:50:14.184Z,21.35
2019-03-08T01:52:47.751Z,20.37
2019-03-08T01:55:19.704Z,20.08
2019-03-08T01:57:52.308Z,22.42
2019-03-08T02:00:24.532Z,20.57
2019-03-08T02:03:05.218Z,21.75
2019-03-08T02:05:41.993Z,22.70
2019-03-08T02:08:14.057Z,22.65
2019-03-08T02:10:45.958Z,22.42
2019-03-08T02:13:19.875Z,21.05
2019-03-08T02:15:51.742Z,23.65
2019-03-08T02:18:23.591Z,22.75
2019-03-08T02:20:55.580Z,22.58
2019-03-08T02:23:38.044Z,24.60
2019-03-08T02:26:43.067Z,22.25
2019-03-08T02:29:16.048Z,22.05
2019-03-08T02:31:47.875Z,22.50
2019-03-08T02:34:20.075Z,20.57
2019-03-08T02:36:51.890Z,21.50
2019-03-08T02:39:23.691Z,20.77
2019-03-08T02:41:57.155Z,21.62
2019-03-08T02:44:30.568Z,21.60
2019-03-08T02:47:02.507Z,23.38
2019-03-08T02:49:34.318Z,22.82
2019-03-08T02:52:06.175Z,21.42
2019-03-08T02:54:38.018Z,24.50
2019-03-08T02:57:09.793Z,23.60
2019-03-08T02:59:41.779Z,25.75
2019-03-08T03:02:13.695Z,25.45
2019-03-08T03:04:45.645Z,22.60
2019-03-08T03:07:20.446Z,22.40
2019-03-08T03:09:52.272Z,21.77
2019-03-08T03:12:24.131Z,25.02
2019-03-08T03:14:56.494Z,23.50
2019-03-08T03:17:28.276Z,24.20
2019-03-08T03:20:02.823Z,25.97
2019-03-08T03:22:37.386Z,23.60
2019-03-08T03:25:09.875Z,23.90
2019-03-08T03:27:41.766Z,24.40
2019-03-08T03:30:15.660Z,22.87
2019-03-08T03:32:47.514Z,23.62
2019-03-08T03:35:19.310Z,21.75
2019-03-08T03:37:51.413Z,22.25
2019-03-08T03:40:23.327Z,25.10
2019-03-08T03:42:55.251Z,26.42
2019-03-08T03:45:33.200Z,22.80
2019-03-08T03:48:06.909Z,24.20
2019-03-08T03:50:38.740Z,24.23
2019-03-08T03:53:10.534Z,21.87
2019-03-08T03:55:42.928Z,22.02
2019-03-08T03:58:16.968Z,25.77
2019-03-08T04:00:48.763Z,24.18
2019-03-08T04:03:23.907Z,22.35
2019-03-08T04:05:55.688Z,23.15
2019-03-08T04:08:27.924Z,21.65
2019-03-08T04:11:01.117Z,20.00
2019-03-08T04:13:34.842Z,21.60
2019-03-08T04:16:07.562Z,20.95
2019-03-08T04:18:39.380Z,22.20
2019-03-08T04:21:11.192Z,22.73
2019-03-08T04:23:43.129Z,20.68
2019-03-08T04:26:15.023Z,22.30
2019-03-08T04:28:47.470Z,23.25
2019-03-08T04:31:19.401Z,21.52
2019-03-08T04:33:51.398Z,22.80
2019-03-08T04:36:23.269Z,19.70
2019-03-08T04:38:55.172Z,21.55
2019-03-08T04:41:26.983Z,20.72
2019-03-08T04:43:58.825Z,21.10
2019-03-08T04:46:33.092Z,20.70
2019-03-08T04:49:05.055Z,20.10
2019-03-08T04:51:36.966Z,17.80
2019-03-08T04:54:09.142Z,15.48
2019-03-08T04:56:41.209Z,15.03
2019-03-08T04:59:13.135Z,15.40
2019-03-08T05:01:44.945Z,16.05
2019-03-08T05:04:16.792Z,17.30
2019-03-08T05:06:48.607Z,17.15
2019-03-08T05:09:20.647Z,19.20
2019-03-08T05:11:52.460Z,20.50
2019-03-08T05:14:24.269Z,19.87
2019-03-08T05:16:59.042Z,20.47
2019-03-08T05:19:31.183Z,19.43
2019-03-08T05:22:03.003Z,19.10
2019-03-08T05:24:34.943Z,20.48
2019-03-08T05:27:06.714Z,19.17
2019-03-08T05:29:40.041Z,17.52
2019-03-08T05:32:12.002Z,16.90
2019-03-08T05:34:43.864Z,18.03
2019-03-08T05:37:15.663Z,16.95
2019-03-08T05:39:47.540Z,16.12
2019-03-08T05:42:19.368Z,16.02
2019-03-08T05:44:52.839Z,15.50
2019-03-08T05:47:24.711Z,16.62
2019-03-08T05:49:56.534Z,16.35
2019-03-08T05:52:28.357Z,16.90
2019-03-08T05:55:00.347Z,16.37
2019-03-08T05:57:32.151Z,17.85
2019-03-08T06:00:04.204Z,15.20
2019-03-08T06:02:37.196Z,15.40
2019-03-08T06:05:09.111Z,14.40
2019-03-08T06:07:41.752Z,14.13
2019-03-08T06:10:36.033Z,15.03
2019-03-08T06:13:07.996Z,16.20
2019-03-08T06:15:39.929Z,16.67
2019-03-08T06:18:14.418Z,15.23
2019-03-08T06:20:47.771Z,13.40
2019-03-08T06:23:20.596Z,15.10
2019-03-08T06:25:52.536Z,15.78
2019-03-08T06:28:24.324Z,17.03
2019-03-08T06:30:56.168Z,19.53
2019-03-08T06:33:29.629Z,17.47
2019-03-08T06:36:01.433Z,17.23
2019-03-08T06:38:34.377Z,17.93
2019-03-08T06:41:06.191Z,16.43
2019-03-08T06:43:38.297Z,15.00
2019-03-08T06:46:11.491Z,17.07
2019-03-08T06:48:43.399Z,16.77
2019-03-08T06:51:15.571Z,16.23
2019-03-08T06:53:47.404Z,14.37
2019-03-08T06:56:19.241Z,13.93
2019-03-08T06:59:14.337Z,14.10
2019-03-08T07:01:46.301Z,14.00
2019-03-08T07:04:18.095Z,13.37
2019-03-08T07:06:50.105Z,14.17
2019-03-08T07:09:22.349Z,12.80
2019-03-08T07:11:56.222Z,13.60
2019-03-08T07:14:31.265Z,13.13
2019-03-08T07:17:03.658Z,13.53
2019-03-08T07:19:41.590Z,13.73
2019-03-08T07:22:33.037Z,16.03
2019-03-08T07:25:27.272Z,13.80
2019-03-08T07:28:27.038Z,15.33
2019-03-08T07:31:21.221Z,13.67
2019-03-08T07:34:13.619Z,12.00
2019-03-08T07:37:11.169Z,14.73
2019-03-08T07:40:01.857Z,14.13
2019-03-08T07:42:52.560Z,14.37
2019-03-08T07:45:44.198Z,14.27
2019-03-08T07:48:44.098Z,13.47
2019-03-08T07:51:28.498Z,13.07
2019-03-08T07:54:18.246Z,12.70
2019-03-08T07:57:08.495Z,13.07
2019-03-08T07:59:55.553Z,11.68
2019-03-08T08:02:33.929Z,11.97
2019-03-08T08:05:19.481Z,13.63
2019-03-08T08:08:20.192Z,12.78
2019-03-08T08:11:25.942Z,13.97
2019-03-08T08:14:29.540Z,11.27
2019-03-08T08:17:26.240Z,12.45
2019-03-08T08:20:16.339Z,12.63
2019-03-08T08:23:00.484Z,27.75
2019-03-08T08:25:53.083Z,18.10
2019-03-08T08:28:34.406Z,29.77
2019-03-08T08:31:34.651Z,13.38
2019-03-08T08:34:31.272Z,11.97
2019-03-08T08:37:28.475Z,11.73
2019-03-08T08:40:18.331Z,11.30
2019-03-08T08:43:15.115Z,14.58
2019-03-08T08:46:15.768Z,21.37
2019-03-08T08:49:09.269Z,18.15
2019-03-08T08:52:07.029Z,12.63
2019-03-08T08:55:08.373Z,11.50
2019-03-08T08:57:59.192Z,10.00
2019-03-08T09:00:49.849Z,9.70
2019-03-08T09:03:34.836Z,8.18
2019-03-08T09:06:26.185Z,9.95
2019-03-08T09:09:16.970Z,8.50
2019-03-08T09:12:12.453Z,11.83
2019-03-08T09:14:50.913Z,13.43
2019-03-08T09:17:30.260Z,14.38
2019-03-08T09:20:29.809Z,13.85
2019-03-08T09:23:09.431Z,14.47
2019-03-08T09:25:57.597Z,16.57
2019-03-08T09:28:54.275Z,16.30
2019-03-08T09:31:53.949Z,13.43
2019-03-08T09:34:52.396Z,12.80
2019-03-08T09:37:43.265Z,13.70
2019-03-08T09:40:34.368Z,12.58
2019-03-08T09:43:28.694Z,12.65
2019-03-08T09:46:25.895Z,11.18
2019-03-08T09:49:25.441Z,10.82
2019-03-08T09:52:16.207Z,10.98
2019-03-08T09:55:03.135Z,10.78
2019-03-08T09:58:09.642Z,9.65
2019-03-08T10:00:50.576Z,11.03
2019-03-08T10:03:33.189Z,10.08
2019-03-08T10:06:24.117Z,10.45
2019-03-08T10:09:10.416Z,6.72
2019-03-08T10:12:07.104Z,6.95
2019-03-08T10:14:56.667Z,6.45
2019-03-08T10:17:50.355Z,5.30
2019-03-08T10:20:39.688Z,7.03
2019-03-08T10:23:20.350Z,6.67
2019-03-08T10:26:12.416Z,6.58
2019-03-08T10:28:56.498Z,6.33
2019-03-08T10:31:50.561Z,4.95
2019-03-08T10:34:56.809Z,5.03
2019-03-08T10:37:47.496Z,5.00
2019-03-08T10:40:36.736Z,4.60
2019-03-08T10:43:23.574Z,4.00
2019-03-08T10:46:16.559Z,4.22
2019-03-08T10:49:16.311Z,4.50
2019-03-08T10:52:17.264Z,6.55
2019-03-08T10:55:17.623Z,4.90
2019-03-08T10:58:15.709Z,5.20
2019-03-08T11:01:10.362Z,73.70
2019-03-08T11:04:06.860Z,5.03
2019-03-08T11:06:55.499Z,6.75
2019-03-08T11:09:49.371Z,3.72
2019-03-08T11:12:46.234Z,2.85
2019-03-08T11:15:36.718Z,2.83
2019-03-08T11:18:45.733Z,3.30
2019-03-08T11:21:31.244Z,3.33
2019-03-08T11:24:20.664Z,3.47
2019-03-08T11:27:10.052Z,3.85
2019-03-08T11:30:03.411Z,4.22
2019-03-08T11:32:54.241Z,3.10
2019-03-08T11:35:43.613Z,2.80
2019-03-08T11:38:27.883Z,2.35
2019-03-08T11:41:31.264Z,2.80
2019-03-08T11:44:30.801Z,4.72
2019-03-08T11:47:24.080Z,5.45
2019-03-08T11:50:24.111Z,4.42
2019-03-08T11:53:21.456Z,16.82
2019-03-08T11:56:18.550Z,29.80
2019-03-08T11:59:12.239Z,5.40
2019-03-08T12:02:07.821Z,5.55
2019-03-08T12:04:58.237Z,4.97
2019-03-08T12:07:52.124Z,6.15
2019-03-08T12:10:43.177Z,6.20
2019-03-08T12:13:39.882Z,4.40
2019-03-08T12:16:34.429Z,3.65
2019-03-08T12:19:43.328Z,4.45
2019-03-08T12:22:45.863Z,4.80
2019-03-08T12:25:54.655Z,5.12
2019-03-08T12:29:02.471Z,4.53
2019-03-08T12:31:53.295Z,5.08
2019-03-08T12:34:44.324Z,4.62
2019-03-08T12:37:37.095Z,4.00
2019-03-08T12:40:35.880Z,4.05
2019-03-08T12:43:26.595Z,3.60
2019-03-08T12:46:25.716Z,3.55
2019-03-08T12:49:20.368Z,3.60
2019-03-08T12:52:07.806Z,3.58
2019-03-08T12:55:10.522Z,3.40
2019-03-08T12:58:04.203Z,3.40
2019-03-08T13:00:43.169Z,3.83
2019-03-08T13:03:45.950Z,4.50
2019-03-08T13:06:52.785Z,3.83
2019-03-08T13:09:52.590Z,3.08
2019-03-08T13:12:24.423Z,4.45
2019-03-08T13:14:57.742Z,3.45
2019-03-08T13:17:29.548Z,3.55
2019-03-08T13:20:01.376Z,3.00
2019-03-08T13:22:38.058Z,3.67
2019-03-08T13:25:10.116Z,6.17
2019-03-08T13:27:43.165Z,29.75
2019-03-08T13:30:18.187Z,12.78
2019-03-08T13:32:54.428Z,3.83
2019-03-08T13:35:28.558Z,3.77
2019-03-08T13:38:00.624Z,3.75
2019-03-08T13:40:32.470Z,3.42
2019-03-08T13:43:04.448Z,3.35
2019-03-08T13:45:36.256Z,2.72
2019-03-08T13:48:09.952Z,2.70
2019-03-08T13:50:41.720Z,2.40
2019-03-08T13:53:13.529Z,2.20
2019-03-08T13:55:45.336Z,2.47
2019-03-08T13:58:17.153Z,2.58
2019-03-08T14:00:50.242Z,2.80
2019-03-08T14:03:23.736Z,1.95
2019-03-08T14:05:55.593Z,1.90
2019-03-08T14:08:27.407Z,1.70
2019-03-08T14:10:59.226Z,1.92
2019-03-08T14:13:31.079Z,1.67
2019-03-08T14:16:03.283Z,2.08
2019-03-08T14:18:35.096Z,2.87
2019-03-08T14:21:07.014Z,14.73
2019-03-08T14:23:39.384Z,4.03
2019-03-08T14:26:11.192Z,3.00
2019-03-08T14:28:42.963Z,3.47
2019-03-08T14:31:21.794Z,3.00
2019-03-08T14:33:53.573Z,4.03
2019-03-08T14:36:25.406Z,2.95
2019-03-08T14:38:57.546Z,3.00
2019-03-08T14:41:43.232Z,3.30
2019-03-08T14:44:38.824Z,3.42
2019-03-08T14:47:32.793Z,3.50
2019-03-08T14:50:02.708Z,3.50
2019-03-08T14:52:36.411Z,5.12
2019-03-08T14:55:11.138Z,10.40
2019-03-08T14:57:42.912Z,5.10
2019-03-08T15:00:33.081Z,4.97
2019-03-08T15:03:04.993Z,4.33
2019-03-08T15:05:38.590Z,2.83
2019-03-08T15:08:13.746Z,2.87
2019-03-08T15:10:47.223Z,3.05
2019-03-08T15:13:20.077Z,2.70
2019-03-08T15:15:53.293Z,3.00
2019-03-08T15:18:25.955Z,3.27
2019-03-08T15:21:00.069Z,3.22
2019-03-08T15:23:32.181Z,3.30
2019-03-08T15:26:04.296Z,3.60
2019-03-08T15:28:36.198Z,3.83
2019-03-08T15:31:08.410Z,3.52
2019-03-08T15:33:40.281Z,3.80
2019-03-08T15:36:13.615Z,3.87
2019-03-08T15:38:45.683Z,4.22
2019-03-08T15:41:17.554Z,4.55
2019-03-08T15:43:51.230Z,3.98
2019-03-08T15:46:26.753Z,3.58
2019-03-08T15:48:58.242Z,3.40
2019-03-08T15:51:30.012Z,3.47
2019-03-08T15:54:01.879Z,3.80
2019-03-08T15:56:33.694Z,3.55
2019-03-08T15:59:05.621Z,3.10
2019-03-08T16:01:39.173Z,2.77
2019-03-08T16:04:13.071Z,3.37
2019-03-08T16:06:45.426Z,3.17
2019-03-08T16:09:17.390Z,3.55
2019-03-08T16:11:49.229Z,2.83
2019-03-08T16:14:21.058Z,2.70
2019-03-08T16:16:54.621Z,3.47
2019-03-08T16:19:27.596Z,3.35
2019-03-08T16:21:59.448Z,3.30
2019-03-08T16:24:32.656Z,4.80
2019-03-08T16:27:04.878Z,3.33
2019-03-08T16:29:36.693Z,3.30
2019-03-08T16:32:31.538Z,3.83
2019-03-08T16:35:04.257Z,3.50
2019-03-08T16:37:58.449Z,2.98
2019-03-08T16:40:48.932Z,3.27
2019-03-08T16:43:42.016Z,2.55
2019-03-08T16:46:28.323Z,2.35
2019-03-08T16:49:14.798Z,3.30
2019-03-08T16:52:08.588Z,3.92
2019-03-08T16:55:11.257Z,3.67
2019-03-08T16:57:53.469Z,3.22
2019-03-08T17:00:43.018Z,3.20
2019-03-08T17:03:25.434Z,2.72
2019-03-08T17:06:26.331Z,2.83
2019-03-08T17:09:10.429Z,2.35
2019-03-08T17:12:01.586Z,2.98
2019-03-08T17:15:07.966Z,3.33
2019-03-08T17:18:07.453Z,3.33
2019-03-08T17:20:48.702Z,6.15
2019-03-08T17:23:51.690Z,5.90
2019-03-08T17:26:35.590Z,6.67
2019-03-08T17:29:13.926Z,6.33
2019-03-08T17:32:04.707Z,6.00
2019-03-08T17:35:06.323Z,7.85
2019-03-08T17:37:50.722Z,6.15
2019-03-08T17:40:47.496Z,5.75
2019-03-08T17:43:53.969Z,4.10
2019-03-08T17:46:40.683Z,4.15
2019-03-08T17:49:32.170Z,5.78
2019-03-08T17:52:14.444Z,5.47
2019-03-08T17:55:15.032Z,5.45
2019-03-08T17:58:18.245Z,6.15
2019-03-08T18:01:09.026Z,6.40
2019-03-08T18:03:55.532Z,7.15
2019-03-08T18:06:40.186Z,7.05
2019-03-08T18:09:24.969Z,7.67
2019-03-08T18:12:14.568Z,7.45
2019-03-08T18:15:02.930Z,5.67
2019-03-08T18:17:53.985Z,5.72
2019-03-08T18:20:49.409Z,6.97
2019-03-08T18:23:31.371Z,6.37
2019-03-08T18:26:43.772Z,8.43
2019-03-08T18:29:33.474Z,8.65
2019-03-08T18:32:33.429Z,9.98
2019-03-08T18:35:23.734Z,10.88
2019-03-08T18:38:14.279Z,9.63
2019-03-08T18:41:05.299Z,7.30
2019-03-08T18:44:06.960Z,5.72
2019-03-08T18:47:07.047Z,6.22
2019-03-08T18:50:07.031Z,7.70
2019-03-08T18:53:12.884Z,8.73
2019-03-08T18:56:12.651Z,9.93
2019-03-08T18:59:06.712Z,9.23
2019-03-08T19:02:04.466Z,7.53
2019-03-08T19:05:01.383Z,6.28
2019-03-08T19:08:15.563Z,5.92
2019-03-08T19:11:11.328Z,6.67
2019-03-08T19:14:02.318Z,6.53
2019-03-08T19:16:53.361Z,6.33
2019-03-08T19:19:53.257Z,6.30
2019-03-08T19:23:06.680Z,7.55
2019-03-08T19:26:10.467Z,6.95
2019-03-08T19:29:00.955Z,7.12
2019-03-08T19:31:38.781Z,6.83
2019-03-08T19:34:28.484Z,6.87
2019-03-08T19:37:20.152Z,6.12
2019-03-08T19:40:09.880Z,7.90
2019-03-08T19:43:06.994Z,7.10
2019-03-08T19:45:58.128Z,6.40
2019-03-08T19:48:47.449Z,7.45
2019-03-08T19:51:39.147Z,7.12
2019-03-08T19:54:19.039Z,8.48
2019-03-08T19:57:17.560Z,7.55
2019-03-08T20:00:07.713Z,7.95
2019-03-08T20:03:07.938Z,7.50
2019-03-08T20:05:48.116Z,7.47
2019-03-08T20:08:45.304Z,7.47
2019-03-08T20:11:45.173Z,7.10
2019-03-08T20:14:39.347Z,6.90
2019-03-08T20:17:46.593Z,11.00
2019-03-08T20:20:50.234Z,12.70
2019-03-08T20:23:53.624Z,10.10
2019-03-08T20:26:50.230Z,10.00
2019-03-08T20:29:45.903Z,10.48
2019-03-08T20:32:40.144Z,12.03
2019-03-08T20:35:23.668Z,13.13
2019-03-08T20:38:13.278Z,11.00
2019-03-08T20:40:54.874Z,10.63
2019-03-08T20:43:41.129Z,14.55
2019-03-08T20:46:19.905Z,12.63
2019-03-08T20:48:52.019Z,10.10
2019-03-08T20:51:24.753Z,10.50
2019-03-08T20:54:00.737Z,10.13
2019-03-08T20:56:39.427Z,15.48
2019-03-08T20:59:12.270Z,30.00
2019-03-08T21:01:44.232Z,14.10
2019-03-08T21:04:17.867Z,13.03
2019-03-08T21:06:51.303Z,15.88
2019-03-08T21:09:23.519Z,15.15
2019-03-08T21:11:55.993Z,12.60
2019-03-08T21:14:28.265Z,12.50
2019-03-08T21:17:02.822Z,10.25
2019-03-08T21:19:36.118Z,10.45
2019-03-08T21:22:08.148Z,11.08
2019-03-08T21:24:40.105Z,11.70
2019-03-08T21:27:16.785Z,10.93
2019-03-08T21:29:49.373Z,10.90
2019-03-08T21:32:21.714Z,11.53
2019-03-08T21:34:53.611Z,11.33
2019-03-08T21:37:25.671Z,10.75
2019-03-08T21:40:00.742Z,11.35
2019-03-08T21:42:36.986Z,11.83
2019-03-08T21:45:10.726Z,12.45
2019-03-08T21:47:42.858Z,12.85
2019-03-08T21:50:18.276Z,12.78
2019-03-08T21:52:50.281Z,13.50
2019-03-08T21:55:22.211Z,16.60
2019-03-08T21:57:55.260Z,13.93
2019-03-08T22:00:28.127Z,12.58
2019-03-08T22:03:02.129Z,12.93
2019-03-08T22:05:38.465Z,13.15
2019-03-08T22:08:17.238Z,16.15
2019-03-08T22:10:59.933Z,13.13
2019-03-08T22:13:35.579Z,13.35
2019-03-08T22:16:08.244Z,12.95
2019-03-08T22:18:40.451Z,12.93
2019-03-08T22:21:12.852Z,13.00
2019-03-08T22:23:44.813Z,13.65
2019-03-08T22:26:16.907Z,13.15
2019-03-08T22:28:51.261Z,14.38
2019-03-08T22:31:23.217Z,15.88
2019-03-08T22:33:55.191Z,14.25
2019-03-08T22:36:29.352Z,15.03
2019-03-08T22:39:01.338Z,14.63
2019-03-08T22:41:35.656Z,14.68
2019-03-08T22:44:08.481Z,15.13
2019-03-08T22:46:45.198Z,14.05
2019-03-08T22:49:14.821Z,15.15
2019-03-08T22:51:57.402Z,14.23
2019-03-08T22:54:35.864Z,14.93
2019-03-08T22:57:07.815Z,15.63
2019-03-08T22:59:39.648Z,13.85
2019-03-08T23:02:11.690Z,14.80
2019-03-08T23:04:43.911Z,13.68
2019-03-08T23:07:15.715Z,14.15
2019-03-08T23:09:50.614Z,14.05
2019-03-08T23:12:22.490Z,13.75
2019-03-08T23:14:54.395Z,13.38
2019-03-08T23:17:26.256Z,13.72
2019-03-08T23:19:58.134Z,17.55
2019-03-08T23:22:30.311Z,16.60
2019-03-08T23:25:04.849Z,21.27
2019-03-08T23:27:41.843Z,18.42
2019-03-08T23:30:18.509Z,17.77
2019-03-08T23:32:54.246Z,20.85
2019-03-08T23:35:26.065Z,20.65
2019-03-08T23:38:01.196Z,18.92
2019-03-08T23:40:35.680Z,15.20
2019-03-08T23:43:10.112Z,21.15
2019-03-08T23:45:41.956Z,26.77
2019-03-08T23:48:13.985Z,19.60
2019-03-08T23:50:46.339Z,20.40
2019-03-08T23:53:18.125Z,17.48
2019-03-08T23:55:51.707Z,15.18
2019-03-08T23:58:23.900Z,15.50
